Fort Lauderdale, Florida
Current Conditions -  °F | °C
As of 9:53 AM on Thursday 30 Oct 2014 (Local Time) from KFLL Reporting Station
Few Clouds Few Clouds  
Wind Chill: 80°   Ceiling: Unl
Heat Index: 83°   Visibility: 10mi
Dew Point: 68°   Wind: 5mph
Humidity: 67%   Direction: 300°WNW
Pressure: 29.97"   Gusts: NA
Location:  26.12°N, 80.15°W
Report Text: KFLL 301353Z 30004KT 10SM FEW035 27/20 A2997 RMK AO2 SLP150 T02670200
Loading
Personal Weather Stations






























Interactive Weather Map
Tropical Storm Tracking
New forecast layout! Learn more

10-Day Weather Forecast

Advertisements
Track Severe Weather on mobile